Latest Weather Observations for Townsville

IDQ60801

Issued at 2:42 pm EST Wednesday 22 September 2021 (issued every 10 minutes, with the page automatically refreshed every 10 minutes)

About weather observations | Map of weather stations | Latest weather observations for QLD | Other Formats
Station Details ID: 032040 Name: TOWNSVILLE AERO Lat: -19.25 Lon: 146.77 Height: 4.34 m
Data from the previous 72 hours. | See also: Recent months at Townsville
Date/Time
EST
Temp
°C
App
Temp
°C
Dew
Point
°C
Rel
Hum
%
Delta-T
°C
Wind Press
QNH
hPa
Press
MSL
hPa
Rain since
9am
mm
Dir  Spd
km/h
Gust
km/h
Spd
kts
Gust
kts
22/02:30pm 23.9 16.7 3.2 26 10.0 ENE 30 37 16 20 1016.9 1016.8 0.0
22/02:00pm 24.6 17.6 2.1 23 10.7 ENE 28 33 15 18 1017.3 1017.2 0.0
22/01:30pm 24.0 17.2 -1.8 18 11.4 NE 24 32 13 17 1017.9 1017.8 0.0
22/01:00pm 22.9 16.2 -1.2 20 10.6 NE 24 33 13 18 1018.3 1018.2 0.0
22/12:30pm 23.8 18.5 -0.5 20 11.0 ENE 17 26 9 14 1018.8 1018.7 0.0
22/12:00pm 22.9 16.9 -6.9 13 11.8 SE 17 30 9 16 1019.2 1019.1 0.0
22/11:30am 24.2 18.8 -4.9 14 12.1 SSE 15 32 8 17 1019.6 1019.5 0.0
22/11:00am 22.8 16.9 -6.1 14 11.6 SE 17 28 9 15 1020.1 1020.0 0.0
22/10:30am 22.2 15.3 -6.5 14 11.4 SSE 22 32 12 17 1020.4 1020.3 0.0
22/10:00am 22.1 14.8 -6.6 14 11.3 SSE 24 33 13 18 1020.5 1020.4 0.0
22/09:30am 20.6 13.3 -6.1 16 10.5 SSW 24 35 13 19 1020.7 1020.6 0.0
22/09:00am 19.9 13.0 -6.6 16 10.2 SSW 22 30 12 16 1020.7 1020.6 0.0
22/08:30am 19.3 11.6 -6.3 17 9.9 S 26 35 14 19 1020.4 1020.3 0.0
22/08:00am 19.0 11.8 -5.1 19 9.5 S 24 32 13 17 1020.1 1020.0 0.0
22/07:30am 18.4 10.1 -4.9 20 9.2 S 30 39 16 21 1019.8 1019.7 0.0
22/07:00am 18.1 10.9 -5.2 20 9.1 SSW 24 33 13 18 1019.2 1019.1 0.0
22/06:30am 17.7 11.6 -4.3 22 8.7 SSW 19 30 10 16 1018.8 1018.7 0.0
22/06:00am 17.9 11.1 -4.7 21 8.9 SSW 22 32 12 17 1018.4 1018.3 0.0
22/05:30am 18.4 10.5 -4.9 20 9.2 S 28 35 15 19 1018.0 1017.9 0.0
22/05:00am 18.8 10.8 -5.3 19 9.4 S 28 35 15 19 1017.6 1017.5 0.0
22/04:30am 19.2 11.7 -5.0 19 9.6 SSW 26 33 14 18 1017.1 1017.0 0.0
22/04:00am 19.5 10.8 -5.4 18 9.8 S 32 41 17 22 1016.7 1016.6 0.0
22/03:30am 20.0 11.2 -5.8 17 10.1 S 32 48 17 26 1016.4 1016.3 0.0
22/03:00am 20.5 11.2 -5.4 17 10.3 S 35 52 19 28 1016.4 1016.3 0.0
22/02:32am 20.8 12.0 -4.4 18 10.3 S 33 52 18 28 1016.5 1016.4 0.0
22/02:30am 20.9 11.6 -5.0 17 10.4 S 35 52 19 28 1016.5 1016.4 0.0
22/02:00am 21.4 12.7 -5.4 16 10.7 S 32 44 17 24 1016.7 1016.6 0.0
22/01:30am 22.0 13.6 -5.8 15 11.1 S 30 44 16 24 1016.8 1016.7 0.0
22/01:00am 22.9 14.1 -6.0 14 11.6 S 32 46 17 25 1016.6 1016.5 0.0
22/12:32am 23.5 15.4 -6.5 13 12.0 S 28 48 15 26 1016.7 1016.6 0.0
22/12:30am 23.2 15.1 -6.7 13 11.9 S 28 35 15 19 1016.8 1016.7 0.0
22/12:00am 23.5 15.9 -5.5 14 11.8 S 26 37 14 20 1016.8 1016.7 0.0
 
Date/Time
EST
Temp
°C
App
Temp
°C
Dew
Point
°C
Rel
Hum
%
Delta-T
°C
Wind Press
QNH
hPa
Press
MSL
hPa
Rain since
9am
mm
Dir  Spd
km/h
Gust
km/h
Spd
kts
Gust
kts
21/11:30pm 25.0 16.2 -6.3 12 12.8 SSW 32 39 17 21 1016.5 1016.4 0.0
21/11:13pm 25.4 16.6 -6.0 12 13.0 SSW 32 50 17 27 1016.5 1016.4 0.0
21/11:00pm 25.4 17.0 -6.0 12 12.9 SSW 30 39 16 21 1016.4 1016.3 0.0
21/10:30pm 24.9 17.8 -4.4 14 12.4 SSW 24 30 13 16 1016.2 1016.1 0.0
21/10:00pm 26.2 18.4 -3.4 14 12.9 SSW 28 39 15 21 1016.0 1015.9 0.0
21/09:30pm 26.1 19.6 -2.5 15 12.7 SSW 22 30 12 16 1015.5 1015.4 0.0
21/09:00pm 26.4 19.5 -2.3 15 12.8 SSW 24 30 13 16 1015.2 1015.1 0.0
21/08:30pm 24.6 20.4 3.8 26 10.2 SW 15 24 8 13 1014.8 1014.7 0.0
21/08:00pm 21.5 23.2 19.4 88 1.3 WNW 9 11 5 6 1014.2 1014.1 0.0
21/07:30pm 22.4 25.6 19.8 85 1.7 W 2 9 1 5 1013.6 1013.5 0.0
21/07:00pm 22.9 24.1 19.9 83 1.9 WNW 13 15 7 8 1013.0 1012.9 0.0
21/06:30pm 24.4 24.9 16.6 61 4.8 WNW 9 13 5 7 1012.5 1012.4 0.0
21/06:23pm 25.8 25.5 15.5 53 6.2 W 11 19 6 10 1012.3 1012.2 0.0
21/06:00pm 30.9 24.5 -1.8 12 15.2 SSW 22 32 12 17 1011.9 1011.8 0.0
21/05:30pm 32.2 25.5 -0.8 12 15.8 SSW 24 32 13 17 1011.4 1011.3 0.0
21/05:00pm 32.8 24.7 -0.3 12 16.0 SSW 32 39 17 21 1011.2 1011.1 0.0
21/04:30pm 33.4 26.1 0.1 12 16.3 SSW 28 43 15 23 1011.1 1011.0 0.0
21/04:00pm 33.9 27.1 0.5 12 16.5 SW 26 35 14 19 1011.2 1011.1 0.0
21/03:30pm 33.4 25.4 0.1 12 16.3 SSW 32 41 17 22 1011.2 1011.1 0.0
21/03:00pm 33.4 27.9 4.2 16 15.3 SSW 22 33 12 18 1011.5 1011.4 0.0
21/02:30pm 34.4 27.4 -0.3 11 17.0 S 26 33 14 18 1011.7 1011.6 0.0
21/02:00pm 34.2 27.6 -0.4 11 16.9 SSW 24 35 13 19 1011.7 1011.6 0.0
21/01:30pm 33.5 26.6 0.2 12 16.3 SSW 26 39 14 21 1012.3 1012.2 0.0
21/01:00pm 33.2 25.7 1.1 13 16.0 SW 30 37 16 20 1012.8 1012.7 0.0
21/12:30pm 32.9 26.4 2.9 15 15.3 S 26 41 14 22 1013.3 1013.2 0.0
21/12:00pm 32.3 26.9 6.5 20 13.9 S 24 35 13 19 1014.0 1013.9 0.0
21/11:30am 31.5 26.9 9.7 26 12.3 S 24 33 13 18 1014.8 1014.7 0.0
21/11:00am 30.5 26.0 9.9 28 11.6 S 24 35 13 19 1015.4 1015.3 0.0
21/10:30am 29.7 26.1 13.0 35 9.9 S 24 33 13 18 1015.7 1015.6 0.0
21/10:00am 27.3 27.2 16.0 50 6.9 SW 11 19 6 10 1016.3 1016.2 0.0
21/09:30am 26.0 26.5 16.5 55 5.9 WSW 9 13 5 7 1016.6 1016.5 0.0
21/09:00am 24.8 25.5 17.0 62 4.8 SW 9 17 5 9 1016.8 1016.7 0.0
21/08:30am 23.9 24.3 17.2 66 4.1 SW 11 17 6 9 1016.8 1016.7 0.0
21/08:00am 22.8 24.9 18.1 75 2.9 SW 4 9 2 5 1016.6 1016.5 0.0
21/07:30am 20.8 23.6 18.9 89 1.2 N 2 9 1 5 1016.1 1016.0 0.0
21/07:00am 19.1 21.0 17.6 91 0.9 NNE 4 7 2 4 1016.1 1016.0 0.0
21/06:30am 19.3 20.1 18.1 93 0.7 SSW 11 13 6 7 1016.2 1016.1 0.0
21/06:00am 19.1 19.0 18.8 98 0.2 SW 17 26 9 14 1016.5 1016.4 0.0
21/05:30am 16.1 16.8 15.6 97 0.3 WNW 6 7 3 4 1015.4 1015.3 0.0
21/05:00am 16.7 18.4 16.2 97 0.3 WNW 2 7 1 4 1014.8 1014.7 0.0
21/04:30am 16.9 19.0 16.3 96 0.4 CALM 0 0 0 0 1014.8 1014.7 0.0
21/04:00am 17.1 19.3 16.5 96 0.4 CALM 0 0 0 0 1014.7 1014.6 0.0
21/03:30am 16.9 19.1 16.4 97 0.3 CALM 0 0 0 0 1014.9 1014.8 0.0
21/03:00am 17.3 19.6 16.7 96 0.4 CALM 0 0 0 0 1015.3 1015.2 0.0
21/02:30am 17.7 19.3 16.9 95 0.5 WNW 4 6 2 3 1015.6 1015.5 0.0
21/02:00am 17.6 18.6 16.8 95 0.5 WNW 7 9 4 5 1016.0 1015.9 0.0
21/01:30am 18.2 18.8 16.9 92 0.8 WNW 9 9 5 5 1016.2 1016.1 0.0
21/01:00am 18.5 19.7 16.8 90 1.0 S 6 7 3 4 1016.9 1016.8 0.0
21/12:30am 20.2 22.6 18.0 87 1.4 S 2 6 1 3 1017.3 1017.2 0.0
21/12:00am 21.2 22.9 18.6 85 1.6 S 7 7 4 4 1017.8 1017.7 0.0
 
Date/Time
EST
Temp
°C
App
Temp
°C
Dew
Point
°C
Rel
Hum
%
Delta-T
°C
Wind Press
QNH
hPa
Press
MSL
hPa
Rain since
9am
mm
Dir  Spd
km/h
Gust
km/h
Spd
kts
Gust
kts
20/11:30pm 20.6 21.8 18.2 86 1.5 S 9 9 5 5 1018.1 1018.0 0.0
20/11:00pm 21.0 22.4 18.6 86 1.5 S 9 9 5 5 1018.1 1018.0 0.0
20/10:30pm 20.9 23.9 18.5 86 1.5 CALM 0 2 0 1 1018.0 1017.9 0.0
20/10:00pm 21.3 23.9 18.3 83 1.9 SE 2 7 1 4 1018.0 1017.9 0.0
20/09:30pm 21.4 23.0 18.2 82 2.0 ESE 7 11 4 6 1017.9 1017.8 0.0
20/09:00pm 21.5 22.6 18.1 81 2.1 E 9 13 5 7 1018.0 1017.9 0.0
20/08:30pm 22.0 22.8 18.2 79 2.4 E 11 15 6 8 1017.9 1017.8 0.0
20/08:00pm 22.0 22.0 18.2 79 2.4 ENE 15 17 8 9 1017.4 1017.3 0.0
20/07:30pm 22.5 22.7 18.5 78 2.5 E 15 19 8 10 1017.0 1016.9 0.0
20/07:00pm 22.5 22.0 17.8 75 2.9 ENE 17 22 9 12 1016.6 1016.5 0.0
20/06:30pm 22.9 22.3 17.6 72 3.3 ENE 17 24 9 13 1016.4 1016.3 0.0
20/06:00pm 23.3 22.1 17.1 68 3.8 ENE 19 26 10 14 1016.1 1016.0 0.0
20/05:30pm 24.1 21.8 16.6 63 4.6 ENE 24 30 13 16 1015.6 1015.5 0.0
20/05:00pm 24.8 22.2 16.0 58 5.4 NE 24 30 13 16 1015.5 1015.4 0.0
20/04:30pm 25.3 22.4 16.2 57 5.6 NE 26 32 14 17 1015.4 1015.3 0.0
20/04:00pm 25.9 22.9 15.9 54 6.1 ENE 26 33 14 18 1015.6 1015.5 0.0
20/03:30pm 26.5 23.5 15.8 51 6.5 ENE 26 33 14 18 1015.7 1015.6 0.0
20/03:00pm 26.1 22.8 16.1 54 6.1 ENE 28 33 15 18 1016.2 1016.1 0.0
20/02:30pm 26.5 23.7 17.3 57 5.8 NE 28 33 15 18 1016.6 1016.5 0.0
20/02:00pm 27.4 24.7 17.6 55 6.2 NE 28 33 15 18 1017.0 1016.9 0.0
20/01:30pm 26.4 22.9 15.4 50 6.7 NE 28 35 15 19 1017.2 1017.1 0.0
20/01:00pm 27.6 24.0 14.3 44 8.0 ENE 26 33 14 18 1017.6 1017.5 0.0
20/12:30pm 27.2 24.7 16.2 51 6.8 NE 24 35 13 19 1018.1 1018.0 0.0
20/12:00pm 27.3 25.9 16.6 52 6.6 ESE 19 30 10 16 1018.6 1018.5 0.0
20/11:30am 27.1 25.7 15.5 49 7.1 E 17 32 9 17 1019.3 1019.2 0.0
20/11:00am 26.2 24.7 16.4 54 6.0 SE 19 30 10 16 1019.7 1019.6 0.0
20/10:30am 25.5 22.3 16.4 57 5.6 ESE 28 35 15 19 1019.9 1019.8 0.0
20/10:00am 25.3 22.8 16.2 57 5.6 ENE 24 32 13 17 1020.0 1019.9 0.0
20/09:30am 24.9 24.2 15.5 56 5.7 SSE 13 19 7 10 1019.9 1019.8 0.0
20/09:00am 24.0 23.2 16.0 61 4.8 ESE 15 22 8 12 1020.0 1019.9 0.0
20/08:30am 23.4 23.2 15.7 62 4.6 SSE 11 17 6 9 1019.9 1019.8 0.0
20/08:00am 21.4 22.8 16.4 73 3.0 SE 4 11 2 6 1019.7 1019.6 0.0
20/07:30am 21.3 22.1 16.3 73 3.0 NE 7 11 4 6 1019.4 1019.3 0.0
20/07:00am 19.0 19.7 17.0 88 1.2 WNW 9 11 5 6 1018.8 1018.7 0.0
20/06:30am 18.1 19.1 16.4 90 1.0 SW 6 7 3 4 1018.6 1018.5 0.0
20/06:00am 18.1 20.2 16.3 89 1.1 CALM 0 0 0 0 1018.6 1018.5 0.0
20/05:30am 18.3 19.5 15.9 86 1.4 SW 4 9 2 5 1018.3 1018.2 0.0
20/05:00am 19.8 20.6 16.3 80 2.1 SSW 7 9 4 5 1018.3 1018.2 0.0
20/04:30am 17.8 18.7 16.1 90 1.0 WNW 6 7 3 4 1018.1 1018.0 0.0
20/04:00am 18.5 20.5 16.1 86 1.4 CALM 0 0 0 0 1018.2 1018.1 0.0
20/03:30am 20.1 20.4 15.9 77 2.5 SE 9 13 5 7 1018.2 1018.1 0.0
20/03:00am 19.5 19.0 16.0 80 2.1 SE 13 15 7 8 1018.4 1018.3 0.0
20/02:30am 19.6 19.1 15.9 79 2.2 SE 13 15 7 8 1018.5 1018.4 0.0
20/02:00am 20.2 20.0 15.8 76 2.6 SE 11 13 6 7 1018.8 1018.7 0.0
20/01:30am 20.5 20.1 16.3 77 2.5 SSE 13 15 7 8 1018.9 1018.8 0.0
20/01:00am 19.4 19.7 15.9 80 2.1 SSE 9 13 5 7 1019.3 1019.2 0.0
20/12:30am 19.4 19.7 16.1 81 2.0 SSE 9 9 5 5 1019.6 1019.5 0.0
20/12:00am 19.8 19.9 16.4 81 2.0 SE 11 13 6 7 1020.1 1020.0 0.0
 
Date/Time
EST
Temp
°C
App
Temp
°C
Dew
Point
°C
Rel
Hum
%
Delta-T
°C
Wind Press
QNH
hPa
Press
MSL
hPa
Rain since
9am
mm
Dir  Spd
km/h
Gust
km/h
Spd
kts
Gust
kts
19/11:30pm 20.6 20.4 16.6 78 2.4 SSE 13 15 7 8 1020.4 1020.3 0.0
19/11:00pm 20.7 20.6 16.9 79 2.3 SSE 13 15 7 8 1020.8 1020.7 0.0
19/10:30pm 21.5 21.5 17.1 76 2.7 SE 13 20 7 11 1020.9 1020.8 0.0
19/10:00pm 21.2 21.1 17.0 77 2.6 ESE 13 15 7 8 1021.0 1020.9 0.0
19/09:30pm 21.1 21.8 17.1 78 2.4 SSE 9 13 5 7 1020.7 1020.6 0.0
19/09:00pm 20.9 21.9 17.7 82 2.0 SSE 9 11 5 6 1020.5 1020.4 0.0
19/08:30pm 22.0 22.0 17.2 74 2.9 ESE 13 19 7 10 1020.3 1020.2 0.0
19/08:00pm 21.9 22.0 17.5 76 2.7 E 13 19 7 10 1019.9 1019.8 0.0
19/07:30pm 22.3 22.4 17.4 74 3.0 ESE 13 20 7 11 1019.5 1019.4 0.0
19/07:00pm 22.6 22.5 17.9 75 2.9 ESE 15 19 8 10 1019.0 1018.9 0.0
19/06:30pm 22.7 21.8 17.8 74 3.0 ENE 19 24 10 13 1018.7 1018.6 0.0
19/06:00pm 23.2 21.8 17.9 72 3.3 E 22 28 12 15 1018.5 1018.4 0.0
19/05:30pm 23.8 21.8 17.5 68 3.9 ENE 24 30 13 16 1018.2 1018.1 0.0
19/05:00pm 24.7 22.4 17.7 65 4.4 ENE 26 32 14 17 1018.1 1018.0 0.0
19/04:30pm 24.9 21.9 16.9 61 4.9 ENE 28 33 15 18 1018.1 1018.0 0.0
19/04:00pm 25.3 22.6 17.5 62 4.9 ENE 28 33 15 18 1017.9 1017.8 0.0
19/03:30pm 25.7 22.6 16.5 56 5.7 ENE 28 35 15 19 1018.1 1018.0 0.0
19/03:00pm 25.9 22.2 17.0 58 5.5 ENE 32 37 17 20 1018.2 1018.1 0.0

Other formats

Comma delimited format used in spreadsheet applications
http://www.bom.gov.au/fwo/IDQ60801/IDQ60801.94294.axf

JavaScript Object Notation format (JSON) in row-major order
http://www.bom.gov.au/fwo/IDQ60801/IDQ60801.94294.json

Data quality

Most of these data are generated automatically and are frequently updated. Quality checks on data are not normally performed. It is possible for incorrect values to appear. Refer to information at About Latest Weather Observations and please check the disclaimer before using these data.